Time;durP1;ratioP1;P1;durP2;ratioP2;P2;SDS_P1;SDS_P2;PMS_P1;PMS_P2;Temp;Humidity;BMP_temperature;BMP_pressure;BME280_temperature;BME280_humidity;BME280_pressure;Samples;Min_cycle;Max_cycle;Signal;HPM_P1;HPM_P2
2021/11/29 00:00:35;;;;;;;;;;;23.00;49.30;;;;;;5094448;28;19915;-69
2021/11/29 00:03:03;;;;;;;;;;;23.00;49.30;;;;;;5094258;28;19960;-68
2021/11/29 00:05:28;;;;;;;;;;;23.00;49.30;;;;;;5075752;28;20306;-68
2021/11/29 00:07:56;;;;;;;;;;;23.00;49.30;;;;;;5094296;28;19995;-69
2021/11/29 00:10:21;;;;;;;;;;;22.90;49.30;;;;;;5092185;28;19915;-69
2021/11/29 00:12:47;;;;;;;;;;;22.90;49.20;;;;;;5094230;28;19916;-68
2021/11/29 00:15:13;;;;;;;;;;;22.90;49.20;;;;;;5094194;28;19915;-69
2021/11/29 00:17:38;;;;;;;;;;;22.90;49.20;;;;;;5094111;28;20314;-69
2021/11/29 00:20:05;;;;;;;;;;;22.90;49.20;;;;;;5093421;28;19908;-69
2021/11/29 00:22:31;;;;;;;;;;;22.90;49.20;;;;;;5093964;28;19924;-69
2021/11/29 00:24:56;;;;;;;;;;;22.90;49.20;;;;;;5093921;28;19969;-69
2021/11/29 00:27:22;;;;;;;;;;;22.90;49.20;;;;;;5093907;28;19987;-68
2021/11/29 00:29:47;;;;;;;;;;;22.90;49.20;;;;;;5093902;28;19912;-69
2021/11/29 00:32:13;;;;;;;;;;;22.80;49.20;;;;;;5093651;28;19938;-69
2021/11/29 00:34:38;;;;;;;;;;;22.80;49.10;;;;;;5093277;28;19912;-69
2021/11/29 00:37:04;;;;;;;;;;;22.80;49.10;;;;;;5093781;28;19937;-69
2021/11/29 00:39:30;;;;;;;;;;;22.80;49.10;;;;;;5093684;28;20364;-69
2021/11/29 00:41:55;;;;;;;;;;;22.80;49.10;;;;;;5093568;28;19915;-69
2021/11/29 00:44:21;;;;;;;;;;;22.80;49.10;;;;;;5093589;28;19934;-68
2021/11/29 00:46:46;;;;;;;;;;;22.80;49.10;;;;;;5093501;28;19908;-69
2021/11/29 00:49:11;;;;;;;;;;;22.80;49.10;;;;;;5092907;28;20045;-69
2021/11/29 00:51:37;;;;;;;;;;;22.70;49.00;;;;;;5093426;28;19975;-68
2021/11/29 00:54:03;;;;;;;;;;;22.70;49.10;;;;;;5093375;28;19909;-70
2021/11/29 00:56:28;;;;;;;;;;;22.70;49.00;;;;;;5093451;28;19908;-68
2021/11/29 00:58:54;;;;;;;;;;;22.70;49.00;;;;;;5093319;28;19975;-69
2021/11/29 01:01:19;;;;;;;;;;;22.70;49.10;;;;;;5093251;28;20334;-68
2021/11/29 01:03:45;;;;;;;;;;;22.70;49.10;;;;;;5092715;28;20345;-68
2021/11/29 01:06:10;;;;;;;;;;;22.70;49.00;;;;;;5093334;28;19912;-68
2021/11/29 01:08:36;;;;;;;;;;;22.60;49.00;;;;;;5093169;28;19908;-69
2021/11/29 01:11:03;;;;;;;;;;;22.60;49.00;;;;;;5093077;28;20368;-70
2021/11/29 01:13:29;;;;;;;;;;;22.60;49.00;;;;;;5093007;28;19915;-69
2021/11/29 01:15:54;;;;;;;;;;;22.60;48.90;;;;;;5093038;28;19909;-68
2021/11/29 01:18:20;;;;;;;;;;;22.60;49.00;;;;;;5092467;28;19908;-68
2021/11/29 01:20:45;;;;;;;;;;;22.60;49.00;;;;;;5092618;28;19935;-67
2021/11/29 01:23:12;;;;;;;;;;;22.60;48.90;;;;;;5092899;28;19920;-68
2021/11/29 01:25:37;;;;;;;;;;;22.50;48.90;;;;;;5092829;28;19951;-68
2021/11/29 01:28:03;;;;;;;;;;;22.50;48.90;;;;;;5093053;28;20005;-69
2021/11/29 01:30:29;;;;;;;;;;;22.50;48.90;;;;;;5092107;28;20356;-68
2021/11/29 01:32:54;;;;;;;;;;;22.50;48.80;;;;;;5092116;28;19916;-69
2021/11/29 01:35:20;;;;;;;;;;;22.50;48.90;;;;;;5092597;28;19908;-67
2021/11/29 01:37:46;;;;;;;;;;;22.50;48.80;;;;;;5092652;28;19908;-69
2021/11/29 01:40:11;;;;;;;;;;;22.50;48.80;;;;;;5092614;28;19908;-68
2021/11/29 01:42:37;;;;;;;;;;;22.50;48.90;;;;;;5092599;28;19930;-70
2021/11/29 01:45:03;;;;;;;;;;;22.40;48.70;;;;;;5092490;28;19954;-68
2021/11/29 01:47:28;;;;;;;;;;;22.40;48.80;;;;;;5091931;28;19912;-68
2021/11/29 01:49:54;;;;;;;;;;;22.40;48.80;;;;;;5092416;28;19996;-68
2021/11/29 01:52:19;;;;;;;;;;;22.50;48.80;;;;;;5074201;28;20360;-69
2021/11/29 01:54:45;;;;;;;;;;;22.40;48.70;;;;;;5092839;28;19915;-68
2021/11/29 01:57:10;;;;;;;;;;;22.40;48.70;;;;;;5092309;28;19908;-69
2021/11/29 01:59:36;;;;;;;;;;;22.40;48.70;;;;;;5092118;28;19915;-68
2021/11/29 02:02:01;;;;;;;;;;;22.40;48.70;;;;;;5091728;28;19915;-68
2021/11/29 02:04:27;;;;;;;;;;;22.40;48.70;;;;;;5092207;28;20295;-69
2021/11/29 02:06:52;;;;;;;;;;;22.30;48.70;;;;;;5092180;28;19913;-69
2021/11/29 02:09:18;;;;;;;;;;;22.40;48.70;;;;;;5092129;28;19908;-68
2021/11/29 02:11:43;;;;;;;;;;;22.30;48.70;;;;;;5092014;28;19923;-68
2021/11/29 02:14:09;;;;;;;;;;;22.30;48.70;;;;;;5092038;28;19908;-69
2021/11/29 02:16:34;;;;;;;;;;;22.30;48.70;;;;;;5091564;28;20368;-69
2021/11/29 02:19:01;;;;;;;;;;;22.30;48.70;;;;;;5092165;28;19908;-68
2021/11/29 02:21:30;;;;;;;;;;;22.30;48.70;;;;;;5091814;28;19917;-68
2021/11/29 02:24:06;;;;;;;;;;;22.30;48.60;;;;;;5092046;28;19998;-68
2021/11/29 02:26:33;;;;;;;;;;;22.20;48.60;;;;;;5091873;28;20411;-69
2021/11/29 02:29:00;;;;;;;;;;;22.20;48.60;;;;;;5092144;28;20325;-68
2021/11/29 02:31:28;;;;;;;;;;;22.20;49.20;;;;;;5091378;28;19916;-67
2021/11/29 02:33:53;;;;;;;;;;;22.20;48.60;;;;;;5091853;28;20004;-68
2021/11/29 02:36:19;;;;;;;;;;;22.20;49.20;;;;;;5092291;28;20022;-68
2021/11/29 02:38:44;;;;;;;;;;;22.20;48.60;;;;;;5091834;28;19908;-68
2021/11/29 02:41:10;;;;;;;;;;;22.20;48.60;;;;;;5091659;28;19908;-68
2021/11/29 02:43:35;;;;;;;;;;;22.10;48.50;;;;;;5094104;28;19995;-68
2021/11/29 02:46:01;;;;;;;;;;;22.10;48.50;;;;;;5095352;28;20373;-69
2021/11/29 02:48:42;;;;;;;;;;;22.10;48.50;;;;;;5095948;28;20041;-69
2021/11/29 02:51:15;;;;;;;;;;;22.10;48.50;;;;;;5095804;28;20273;-68
2021/11/29 02:53:41;;;;;;;;;;;22.10;48.50;;;;;;5095616;28;19915;-69
2021/11/29 02:56:06;;;;;;;;;;;22.10;48.50;;;;;;5095905;28;19908;-68
2021/11/29 02:58:32;;;;;;;;;;;22.10;48.50;;;;;;5095552;28;19908;-71
2021/11/29 03:00:57;;;;;;;;;;;22.10;48.50;;;;;;5095070;28;19912;-68
2021/11/29 03:03:23;;;;;;;;;;;22.00;48.50;;;;;;5095641;28;19908;-68
2021/11/29 03:05:48;;;;;;;;;;;22.00;48.50;;;;;;5095519;28;19953;-68
2021/11/29 03:08:13;;;;;;;;;;;22.00;48.50;;;;;;5095660;28;19912;-68
2021/11/29 03:10:39;;;;;;;;;;;22.00;48.50;;;;;;5095441;28;20310;-68
2021/11/29 03:13:04;;;;;;;;;;;22.00;48.50;;;;;;5095493;28;19912;-69
2021/11/29 03:15:30;;;;;;;;;;;22.00;48.40;;;;;;5094962;28;19915;-68
2021/11/29 03:17:55;;;;;;;;;;;22.00;48.50;;;;;;5095320;28;19969;-68
2021/11/29 03:20:21;;;;;;;;;;;22.00;48.50;;;;;;5095454;28;19990;-68
2021/11/29 03:22:46;;;;;;;;;;;22.00;48.50;;;;;;5094979;28;19920;-68
2021/11/29 03:25:12;;;;;;;;;;;22.00;48.50;;;;;;5095362;28;19985;-67
2021/11/29 03:27:38;;;;;;;;;;;21.90;48.40;;;;;;5095089;28;19912;-68
2021/11/29 03:30:04;;;;;;;;;;;22.00;48.40;;;;;;5094545;28;19908;-68
2021/11/29 03:32:30;;;;;;;;;;;21.90;48.40;;;;;;5094802;28;20140;-68
2021/11/29 03:34:55;;;;;;;;;;;21.90;48.40;;;;;;5094959;28;19908;-68
2021/11/29 03:37:22;;;;;;;;;;;21.90;48.40;;;;;;5076856;28;19915;-69
2021/11/29 03:39:48;;;;;;;;;;;21.90;48.40;;;;;;5095032;28;19943;-68
2021/11/29 03:42:13;;;;;;;;;;;21.90;48.40;;;;;;5094771;28;19982;-69
2021/11/29 03:44:39;;;;;;;;;;;21.90;48.40;;;;;;5094338;28;19916;-69
2021/11/29 03:47:05;;;;;;;;;;;21.90;48.30;;;;;;5094725;28;19934;-69
2021/11/29 03:49:31;;;;;;;;;;;21.90;48.40;;;;;;5094691;28;19908;-68
2021/11/29 03:51:56;;;;;;;;;;;21.80;48.30;;;;;;5094620;28;19923;-67
2021/11/29 03:54:22;;;;;;;;;;;21.80;48.30;;;;;;5094184;28;20359;-68
2021/11/29 03:56:48;;;;;;;;;;;21.80;48.30;;;;;;5094546;28;19916;-67
2021/11/29 03:59:14;;;;;;;;;;;21.80;48.30;;;;;;5094119;28;20027;-66
2021/11/29 04:01:41;;;;;;;;;;;21.80;48.30;;;;;;5094443;28;20010;-69
2021/11/29 04:04:06;;;;;;;;;;;21.80;48.30;;;;;;5076283;28;20210;-68
2021/11/29 04:06:32;;;;;;;;;;;21.80;48.30;;;;;;5094312;28;19908;-68
2021/11/29 04:08:58;;;;;;;;;;;21.80;48.30;;;;;;5094283;28;19931;-68
2021/11/29 04:11:23;;;;;;;;;;;21.80;48.30;;;;;;5094188;28;19916;-68
2021/11/29 04:13:49;;;;;;;;;;;21.70;48.20;;;;;;5093739;28;19915;-68
2021/11/29 04:16:15;;;;;;;;;;;21.70;48.20;;;;;;5094223;28;19943;-68
2021/11/29 04:18:42;;;;;;;;;;;21.70;48.20;;;;;;5094131;28;19915;-67
2021/11/29 04:21:08;;;;;;;;;;;21.70;48.20;;;;;;5093814;28;20269;-68
2021/11/29 04:23:33;;;;;;;;;;;21.70;48.20;;;;;;5094141;28;19962;-69
2021/11/29 04:26:01;;;;;;;;;;;21.70;48.20;;;;;;5093933;28;19908;-68
2021/11/29 04:28:26;;;;;;;;;;;21.70;48.20;;;;;;5093541;28;19908;-68
2021/11/29 04:30:52;;;;;;;;;;;21.70;48.20;;;;;;5093826;28;19909;-68
2021/11/29 04:33:17;;;;;;;;;;;21.70;48.20;;;;;;5093826;28;19926;-68
2021/11/29 04:35:43;;;;;;;;;;;21.70;48.20;;;;;;5093728;28;19908;-67
2021/11/29 04:38:08;;;;;;;;;;;21.60;48.10;;;;;;5094054;28;19980;-68
2021/11/29 04:40:34;;;;;;;;;;;21.70;48.20;;;;;;5093905;28;20300;-68
2021/11/29 04:43:00;;;;;;;;;;;21.60;48.20;;;;;;5075463;28;19908;-67
2021/11/29 04:45:25;;;;;;;;;;;21.60;48.20;;;;;;5093614;28;20272;-68
2021/11/29 04:47:51;;;;;;;;;;;21.60;48.10;;;;;;5093519;28;19915;-68
2021/11/29 04:50:16;;;;;;;;;;;21.60;48.10;;;;;;5093411;28;19908;-68
2021/11/29 04:52:42;;;;;;;;;;;21.60;48.10;;;;;;5093473;28;19916;-68
2021/11/29 04:55:08;;;;;;;;;;;21.60;48.10;;;;;;5093384;28;19912;-69
2021/11/29 04:57:33;;;;;;;;;;;21.60;48.10;;;;;;5093341;28;20368;-68
2021/11/29 04:59:59;;;;;;;;;;;21.50;48.10;;;;;;5093295;28;19915;-68
2021/11/29 05:02:24;;;;;;;;;;;21.60;48.10;;;;;;5093334;28;19973;-68
2021/11/29 05:04:50;;;;;;;;;;;21.50;48.10;;;;;;5092857;28;19915;-68
2021/11/29 05:07:16;;;;;;;;;;;21.50;48.10;;;;;;5092818;28;20380;-69
2021/11/29 05:09:42;;;;;;;;;;;21.50;48.10;;;;;;5092649;28;20364;-69
2021/11/29 05:12:13;;;;;;;;;;;21.50;48.10;;;;;;5093115;28;19927;-69
2021/11/29 05:14:39;;;;;;;;;;;21.50;48.10;;;;;;5093028;28;19951;-68
2021/11/29 05:17:04;;;;;;;;;;;21.50;48.10;;;;;;5092954;28;19946;-68
2021/11/29 05:19:30;;;;;;;;;;;21.50;48.10;;;;;;5092918;28;19915;-68
2021/11/29 05:21:55;;;;;;;;;;;21.50;48.10;;;;;;5092694;28;19927;-68
2021/11/29 05:24:20;;;;;;;;;;;21.50;48.10;;;;;;5092392;28;20378;-68
2021/11/29 05:26:46;;;;;;;;;;;21.40;48.00;;;;;;5092837;28;20499;-69
2021/11/29 05:29:15;;;;;;;;;;;21.40;48.00;;;;;;5074559;28;20306;-68
2021/11/29 05:31:41;;;;;;;;;;;21.50;48.10;;;;;;5092545;28;20439;-67
2021/11/29 05:34:06;;;;;;;;;;;21.40;48.00;;;;;;5092620;28;19954;-68
2021/11/29 05:36:32;;;;;;;;;;;21.40;48.00;;;;;;5092557;28;19946;-70
2021/11/29 05:38:57;;;;;;;;;;;21.40;48.00;;;;;;5092176;28;19908;-68
2021/11/29 05:41:22;;;;;;;;;;;21.40;48.00;;;;;;5092463;28;20015;-66
2021/11/29 05:43:48;;;;;;;;;;;21.40;48.00;;;;;;5092494;28;19958;-67
2021/11/29 05:46:18;;;;;;;;;;;21.40;48.00;;;;;;5092475;28;20448;-69
2021/11/29 05:48:43;;;;;;;;;;;21.40;48.00;;;;;;5092392;28;19908;-67
2021/11/29 05:51:09;;;;;;;;;;;21.40;48.00;;;;;;5092297;28;19916;-67
2021/11/29 05:53:34;;;;;;;;;;;21.40;48.60;;;;;;5091926;28;19947;-67
2021/11/29 05:56:04;;;;;;;;;;;21.40;48.00;;;;;;5092381;28;20056;-68
2021/11/29 05:58:29;;;;;;;;;;;21.40;47.90;;;;;;5092322;28;19908;-67
2021/11/29 06:00:55;;;;;;;;;;;21.40;47.90;;;;;;5092271;28;20380;-68
2021/11/29 06:03:20;;;;;;;;;;;21.40;47.90;;;;;;5092154;28;19941;-67
2021/11/29 06:05:45;;;;;;;;;;;21.40;47.90;;;;;;5092500;28;19908;-68
2021/11/29 06:08:11;;;;;;;;;;;21.40;47.90;;;;;;5091696;28;19909;-67
2021/11/29 06:10:36;;;;;;;;;;;21.50;47.90;;;;;;5092110;28;19908;-68
2021/11/29 06:13:02;;;;;;;;;;;21.40;47.80;;;;;;5091975;28;19923;-68
2021/11/29 06:15:27;;;;;;;;;;;21.40;47.80;;;;;;5091959;28;19912;-67
2021/11/29 06:17:53;;;;;;;;;;;21.50;47.80;;;;;;5091814;28;19998;-66
2021/11/29 06:20:22;;;;;;;;;;;21.50;47.80;;;;;;5091871;28;19908;-66
2021/11/29 06:22:49;;;;;;;;;;;21.50;47.80;;;;;;5091383;28;19927;-68
2021/11/29 06:25:14;;;;;;;;;;;21.50;47.80;;;;;;5091908;28;20010;-61
2021/11/29 06:27:39;;;;;;;;;;;21.50;47.80;;;;;;5091892;28;19939;-61
2021/11/29 06:30:05;;;;;;;;;;;21.50;47.80;;;;;;5091938;28;19916;-60
2021/11/29 06:32:31;;;;;;;;;;;21.40;47.80;;;;;;5091757;28;19916;-59
2021/11/29 06:34:56;;;;;;;;;;;21.40;47.80;;;;;;5091896;28;19915;-60
2021/11/29 06:37:25;;;;;;;;;;;21.40;47.80;;;;;;5091584;28;19973;-64
2021/11/29 06:39:50;;;;;;;;;;;21.40;47.80;;;;;;5092380;28;20398;-70
2021/11/29 06:42:16;;;;;;;;;;;21.40;47.80;;;;;;5091921;28;19994;-66
2021/11/29 06:44:41;;;;;;;;;;;21.40;47.80;;;;;;5091771;28;19908;-64
2021/11/29 06:47:07;;;;;;;;;;;21.50;47.90;;;;;;5091687;28;19908;-67
2021/11/29 06:49:32;;;;;;;;;;;21.50;47.80;;;;;;5073637;28;19908;-68
2021/11/29 06:51:58;;;;;;;;;;;21.60;48.00;;;;;;5091240;28;20042;-68
2021/11/29 06:54:23;;;;;;;;;;;21.60;47.90;;;;;;5091779;28;19916;-72
2021/11/29 06:56:49;;;;;;;;;;;21.70;48.30;;;;;;5091787;28;20375;-71
2021/11/29 06:59:14;;;;;;;;;;;21.70;48.00;;;;;;5091656;28;19961;-71
2021/11/29 07:01:40;;;;;;;;;;;21.70;48.00;;;;;;5091546;28;19908;-68
2021/11/29 07:04:05;;;;;;;;;;;21.80;48.10;;;;;;5091477;28;19923;-73
2021/11/29 07:06:31;;;;;;;;;;;21.80;48.10;;;;;;5091018;28;19947;-70
2021/11/29 07:08:56;;;;;;;;;;;21.90;48.10;;;;;;5091753;28;19912;-69
2021/11/29 07:11:22;;;;;;;;;;;21.90;48.10;;;;;;5073269;28;19971;-64
2021/11/29 07:13:47;;;;;;;;;;;21.90;48.10;;;;;;5091509;28;19978;-64
2021/11/29 07:16:14;;;;;;;;;;;22.00;48.10;;;;;;5091462;28;19931;-66
2021/11/29 07:18:39;;;;;;;;;;;22.00;48.10;;;;;;5091648;28;19909;-61
2021/11/29 07:21:04;;;;;;;;;;;22.00;48.10;;;;;;5090923;28;19943;-61
2021/11/29 07:23:30;;;;;;;;;;;22.10;48.10;;;;;;5091446;28;20000;-62
2021/11/29 07:25:56;;;;;;;;;;;22.10;48.10;;;;;;5091425;28;19934;-65
2021/11/29 07:28:21;;;;;;;;;;;22.10;48.10;;;;;;5091646;28;19915;-62
2021/11/29 07:30:47;;;;;;;;;;;22.10;48.10;;;;;;5094846;28;20380;-62
2021/11/29 07:33:12;;;;;;;;;;;22.20;48.10;;;;;;5095037;28;19912;-62
2021/11/29 07:35:38;;;;;;;;;;;22.20;48.10;;;;;;5094417;28;19912;-64
2021/11/29 07:38:03;;;;;;;;;;;22.20;48.10;;;;;;5095087;28;20266;-64
2021/11/29 07:40:30;;;;;;;;;;;22.20;48.10;;;;;;5094901;28;19947;-64
2021/11/29 07:42:57;;;;;;;;;;;22.20;48.10;;;;;;5094853;28;19912;-67
2021/11/29 07:45:22;;;;;;;;;;;22.20;48.10;;;;;;5094715;28;19915;-68
2021/11/29 07:47:48;;;;;;;;;;;22.20;48.20;;;;;;5094836;28;19908;-68
2021/11/29 07:50:15;;;;;;;;;;;22.20;48.20;;;;;;5094274;28;20019;-68
2021/11/29 07:52:41;;;;;;;;;;;22.30;48.20;;;;;;5094456;28;19923;-69
2021/11/29 07:55:08;;;;;;;;;;;22.30;48.20;;;;;;5094626;28;19908;-64
2021/11/29 07:57:34;;;;;;;;;;;22.30;48.10;;;;;;5090809;28;19908;-63
2021/11/29 08:00:04;;;;;;;;;;;22.30;48.20;;;;;;5091630;28;19920;-63
2021/11/29 08:02:29;;;;;;;;;;;22.30;48.20;;;;;;5093605;28;19912;-63
2021/11/29 08:04:55;;;;;;;;;;;22.30;48.20;;;;;;5093767;28;20279;-63
2021/11/29 08:07:20;;;;;;;;;;;22.30;48.20;;;;;;5094288;28;19908;-63
2021/11/29 08:09:47;;;;;;;;;;;22.30;48.20;;;;;;5094245;28;19908;-63
2021/11/29 08:12:13;;;;;;;;;;;22.30;48.20;;;;;;5093704;28;19917;-64
2021/11/29 08:14:38;;;;;;;;;;;22.30;48.30;;;;;;5092640;28;20403;-63
2021/11/29 08:17:04;;;;;;;;;;;22.30;48.30;;;;;;5093569;28;19916;-63
2021/11/29 08:19:29;;;;;;;;;;;22.30;48.30;;;;;;5093549;28;20341;-63
2021/11/29 08:21:55;;;;;;;;;;;22.30;48.30;;;;;;5093709;28;19926;-63
2021/11/29 08:24:20;;;;;;;;;;;22.30;48.30;;;;;;5093993;28;19912;-63
2021/11/29 08:26:46;;;;;;;;;;;22.30;48.30;;;;;;5093733;28;19912;-63
2021/11/29 08:29:11;;;;;;;;;;;22.30;48.30;;;;;;5093698;28;19943;-64
2021/11/29 08:31:37;;;;;;;;;;;22.30;48.30;;;;;;5093658;28;19924;-63
2021/11/29 08:34:03;;;;;;;;;;;22.30;48.30;;;;;;5093254;28;19915;-64
2021/11/29 08:36:29;;;;;;;;;;;22.30;48.30;;;;;;5093605;28;19912;-64
2021/11/29 08:38:54;;;;;;;;;;;22.30;48.30;;;;;;5093780;28;19914;-63
2021/11/29 08:41:21;;;;;;;;;;;22.40;48.40;;;;;;5093846;28;19987;-64
2021/11/29 08:43:47;;;;;;;;;;;22.40;48.30;;;;;;5093923;28;19915;-63
2021/11/29 08:46:13;;;;;;;;;;;22.30;48.30;;;;;;5093500;28;19908;-63
2021/11/29 08:48:38;;;;;;;;;;;22.40;48.30;;;;;;5092930;28;19948;-63
2021/11/29 08:51:04;;;;;;;;;;;22.40;48.30;;;;;;5093127;28;20096;-64
2021/11/29 08:53:30;;;;;;;;;;;22.40;48.30;;;;;;5072182;28;19991;-63
2021/11/29 08:55:56;;;;;;;;;;;22.40;48.30;;;;;;5099838;28;19908;-63
2021/11/29 08:58:21;;;;;;;;;;;22.40;48.30;;;;;;5092972;28;19912;-63
2021/11/29 09:00:48;;;;;;;;;;;22.40;48.30;;;;;;5093233;28;19922;-64
2021/11/29 09:03:14;;;;;;;;;;;22.40;48.30;;;;;;5092408;28;19915;-60
2021/11/29 09:05:41;;;;;;;;;;;22.40;48.30;;;;;;5093162;28;19908;-62
2021/11/29 09:08:06;;;;;;;;;;;22.40;48.30;;;;;;5092997;28;19914;-65
2021/11/29 09:10:32;;;;;;;;;;;22.40;49.00;;;;;;5092984;28;20370;-66
2021/11/29 09:12:57;;;;;;;;;;;22.40;48.30;;;;;;5092914;28;19916;-65
2021/11/29 09:15:23;;;;;;;;;;;22.50;48.30;;;;;;5092878;28;20344;-66
2021/11/29 09:17:48;;;;;;;;;;;22.50;48.30;;;;;;5092259;28;19914;-65
2021/11/29 09:20:15;;;;;;;;;;;22.50;48.30;;;;;;5092845;28;20368;-63
2021/11/29 09:22:42;;;;;;;;;;;22.50;48.30;;;;;;5092357;28;19920;-62
2021/11/29 09:25:08;;;;;;;;;;;22.50;48.20;;;;;;5108895;28;19908;-62
2021/11/29 09:27:34;;;;;;;;;;;22.50;48.20;;;;;;5112894;28;19907;-64
2021/11/29 09:29:59;;;;;;;;;;;22.50;48.20;;;;;;5113251;28;20018;-61
2021/11/29 09:32:24;;;;;;;;;;;22.50;48.20;;;;;;5112745;28;19916;-62
2021/11/29 09:34:50;;;;;;;;;;;22.50;48.10;;;;;;5112985;28;19908;-61
2021/11/29 09:37:18;;;;;;;;;;;22.60;48.20;;;;;;5112903;28;20431;-61
2021/11/29 09:39:44;;;;;;;;;;;22.60;48.20;;;;;;5112930;28;20364;-61
2021/11/29 09:42:10;;;;;;;;;;;22.60;48.20;;;;;;5112766;28;19908;-62
2021/11/29 09:44:35;;;;;;;;;;;22.60;48.20;;;;;;5112751;28;19908;-62
2021/11/29 09:47:01;;;;;;;;;;;22.60;48.10;;;;;;5112192;28;19908;-62
2021/11/29 09:49:29;;;;;;;;;;;22.60;48.10;;;;;;5112701;28;20390;-62
2021/11/29 09:51:59;;;;;;;;;;;22.60;48.10;;;;;;5112084;28;20010;-63
2021/11/29 09:54:24;;;;;;;;;;;22.60;48.10;;;;;;5112664;28;19956;-61
2021/11/29 09:56:53;;;;;;;;;;;22.60;48.10;;;;;;5112452;28;20002;-62
2021/11/29 09:59:23;;;;;;;;;;;22.60;48.10;;;;;;5112386;28;19918;-62
2021/11/29 10:01:49;;;;;;;;;;;22.60;48.10;;;;;;5100423;28;19912;-62
2021/11/29 10:04:14;;;;;;;;;;;22.60;48.10;;;;;;5112529;28;19968;-62
2021/11/29 10:06:40;;;;;;;;;;;22.60;48.10;;;;;;5112437;28;19915;-62
2021/11/29 10:09:25;;;;;;;;;;;22.60;48.10;;;;;;5112355;28;19908;-62
2021/11/29 10:11:51;;;;;;;;;;;22.70;48.10;;;;;;5112259;28;19969;-62
2021/11/29 10:14:16;;;;;;;;;;;22.70;48.10;;;;;;5112217;28;19912;-62
2021/11/29 10:16:43;;;;;;;;;;;22.60;48.00;;;;;;5112608;28;20391;-62
2021/11/29 10:19:09;;;;;;;;;;;22.70;48.10;;;;;;5112240;28;19912;-62
2021/11/29 10:21:34;;;;;;;;;;;22.70;48.00;;;;;;5111923;28;19923;-62
2021/11/29 10:24:00;;;;;;;;;;;22.70;48.00;;;;;;5112177;28;19918;-62
2021/11/29 10:26:30;;;;;;;;;;;22.70;48.00;;;;;;5112443;28;19947;-61
2021/11/29 10:29:07;;;;;;;;;;;22.60;48.00;;;;;;5111680;28;20006;-61
2021/11/29 10:31:40;;;;;;;;;;;22.70;48.00;;;;;;5112053;28;19916;-61
2021/11/29 10:34:07;;;;;;;;;;;22.70;48.00;;;;;;5112034;28;19908;-62
2021/11/29 10:36:35;;;;;;;;;;;22.70;48.00;;;;;;5112123;28;19943;-62
2021/11/29 10:39:04;;;;;;;;;;;22.70;48.00;;;;;;5112375;28;19939;-61
2021/11/29 10:41:32;;;;;;;;;;;22.70;48.00;;;;;;5112017;28;19908;-61
2021/11/29 10:43:58;;;;;;;;;;;22.70;48.00;;;;;;5111538;28;19908;-62
2021/11/29 10:46:33;;;;;;;;;;;22.70;48.00;;;;;;5111988;28;19908;-62
2021/11/29 10:49:01;;;;;;;;;;;22.70;48.00;;;;;;5103297;28;20395;-62
2021/11/29 10:51:27;;;;;;;;;;;22.70;47.90;;;;;;5091685;28;19912;-62
2021/11/29 10:53:52;;;;;;;;;;;22.70;47.90;;;;;;5091467;28;19930;-62
2021/11/29 10:56:18;;;;;;;;;;;22.70;48.00;;;;;;5091588;28;19943;-61
2021/11/29 10:58:45;;;;;;;;;;;22.70;47.90;;;;;;5091910;28;19962;-61
2021/11/29 11:01:11;;;;;;;;;;;22.70;47.90;;;;;;5112017;28;19961;-64
2021/11/29 11:03:56;;;;;;;;;;;22.70;47.90;;;;;;5112710;28;19986;-62
2021/11/29 11:06:26;;;;;;;;;;;22.70;47.90;;;;;;5097485;28;19907;-61
2021/11/29 11:08:55;;;;;;;;;;;22.80;47.90;;;;;;5115725;28;19915;-62
2021/11/29 11:11:47;;;;;;;;;;;22.80;47.90;;;;;;5115634;28;20062;-63
2021/11/29 11:14:17;;;;;;;;;;;22.80;47.80;;;;;;5110179;28;19916;-65
2021/11/29 11:17:03;;;;;;;;;;;22.70;47.80;;;;;;5097285;28;20260;-67
2021/11/29 11:19:31;;;;;;;;;;;22.80;47.80;;;;;;5114709;28;20428;-64
2021/11/29 11:21:58;;;;;;;;;;;22.80;47.80;;;;;;5115082;28;19982;-65
2021/11/29 11:24:28;;;;;;;;;;;22.80;47.90;;;;;;5115537;28;19908;-66
2021/11/29 11:26:56;;;;;;;;;;;22.80;47.90;;;;;;5115000;28;19908;-64
2021/11/29 11:29:32;;;;;;;;;;;22.80;47.90;;;;;;5115250;28;19914;-62
2021/11/29 11:32:06;;;;;;;;;;;22.80;48.00;;;;;;5115201;28;19968;-62
2021/11/29 11:34:35;;;;;;;;;;;22.80;48.00;;;;;;5115266;28;19939;-62
2021/11/29 11:37:00;;;;;;;;;;;22.90;48.10;;;;;;5113747;28;19915;-63
2021/11/29 11:39:26;;;;;;;;;;;22.90;48.10;;;;;;5094806;28;19908;-63
2021/11/29 11:41:52;;;;;;;;;;;22.90;48.10;;;;;;5094179;28;19908;-63
2021/11/29 11:44:18;;;;;;;;;;;22.90;48.10;;;;;;5094626;28;20008;-63
2021/11/29 11:46:44;;;;;;;;;;;22.90;48.20;;;;;;5094610;28;19915;-64
2021/11/29 11:49:09;;;;;;;;;;;23.00;48.20;;;;;;5094532;28;20335;-64
2021/11/29 11:51:36;;;;;;;;;;;23.00;48.30;;;;;;5106240;28;19915;-62
2021/11/29 11:54:01;;;;;;;;;;;23.00;48.30;;;;;;5114813;28;19957;-62
2021/11/29 11:56:26;;;;;;;;;;;23.00;49.00;;;;;;5114402;28;19908;-61
2021/11/29 11:59:02;;;;;;;;;;;23.00;48.30;;;;;;5114786;28;19915;-61
2021/11/29 12:01:28;;;;;;;;;;;23.10;48.50;;;;;;5096394;28;19908;-61
2021/11/29 12:03:53;;;;;;;;;;;23.10;48.40;;;;;;5114740;28;19931;-63
2021/11/29 12:06:19;;;;;;;;;;;23.00;48.40;;;;;;5114623;28;20279;-62
2021/11/29 12:08:48;;;;;;;;;;;23.00;48.40;;;;;;5114611;28;19909;-62
2021/11/29 12:11:26;;;;;;;;;;;23.10;48.50;;;;;;5114356;28;19992;-63
2021/11/29 12:14:11;;;;;;;;;;;23.10;48.50;;;;;;5114429;28;19919;-62
2021/11/29 12:16:42;;;;;;;;;;;23.00;48.50;;;;;;5114468;28;19908;-62
2021/11/29 12:19:14;;;;;;;;;;;23.10;48.60;;;;;;5114265;28;19931;-64
2021/11/29 12:21:40;;;;;;;;;;;23.10;48.50;;;;;;5095918;28;20406;-62
2021/11/29 12:24:11;;;;;;;;;;;23.10;49.20;;;;;;5114359;28;20256;-62
2021/11/29 12:26:43;;;;;;;;;;;23.10;48.60;;;;;;5113592;28;19955;-64
2021/11/29 12:29:20;;;;;;;;;;;23.10;48.60;;;;;;5114431;28;19918;-62
2021/11/29 12:31:47;;;;;;;;;;;23.10;48.60;;;;;;5114085;28;20311;-63
2021/11/29 12:34:12;;;;;;;;;;;23.10;48.50;;;;;;5114149;28;19998;-63
2021/11/29 12:36:56;;;;;;;;;;;23.10;48.60;;;;;;5114077;28;19948;-65
2021/11/29 12:39:40;;;;;;;;;;;23.10;48.60;;;;;;5113609;28;19919;-65
2021/11/29 12:42:06;;;;;;;;;;;23.10;48.60;;;;;;5114129;28;19908;-64
2021/11/29 12:44:45;;;;;;;;;;;23.00;48.50;;;;;;5114070;28;20399;-64
2021/11/29 12:47:29;;;;;;;;;;;23.10;48.60;;;;;;5095551;28;20307;-64
2021/11/29 12:49:56;;;;;;;;;;;23.10;48.60;;;;;;5113431;28;19915;-64
2021/11/29 12:52:41;;;;;;;;;;;23.00;48.50;;;;;;5095239;28;19923;-64
2021/11/29 12:55:19;;;;;;;;;;;23.10;48.60;;;;;;5108672;28;19912;-64
2021/11/29 12:57:46;;;;;;;;;;;23.10;48.60;;;;;;5093116;28;19908;-65
2021/11/29 13:00:24;;;;;;;;;;;23.00;48.50;;;;;;5095113;28;20303;-64
2021/11/29 13:02:55;;;;;;;;;;;23.00;48.50;;;;;;5113589;28;19908;-65
2021/11/29 13:05:27;;;;;;;;;;;23.00;48.50;;;;;;5113783;28;20314;-66
2021/11/29 13:08:06;;;;;;;;;;;23.10;48.60;;;;;;5113387;28;19991;-65
2021/11/29 13:10:47;;;;;;;;;;;23.00;48.50;;;;;;5113627;28;19912;-64
2021/11/29 13:13:22;;;;;;;;;;;23.00;48.50;;;;;;5113428;28;20391;-64
2021/11/29 13:15:48;;;;;;;;;;;23.00;48.50;;;;;;5113232;28;19999;-65
2021/11/29 13:18:33;;;;;;;;;;;23.00;48.50;;;;;;5113304;28;19914;-64
2021/11/29 13:21:00;;;;;;;;;;;23.00;48.50;;;;;;5112867;28;19912;-64
2021/11/29 13:23:26;;;;;;;;;;;23.00;48.50;;;;;;5112543;28;19933;-65
2021/11/29 13:25:51;;;;;;;;;;;23.00;48.50;;;;;;5112720;28;19907;-65
2021/11/29 13:28:16;;;;;;;;;;;23.00;48.40;;;;;;5112683;28;19908;-65
2021/11/29 13:30:43;;;;;;;;;;;23.10;48.50;;;;;;5112887;28;19942;-64
2021/11/29 13:33:09;;;;;;;;;;;23.00;48.50;;;;;;5112853;28;19972;-64
2021/11/29 13:35:34;;;;;;;;;;;23.00;48.50;;;;;;5112790;28;20384;-65
2021/11/29 13:38:00;;;;;;;;;;;23.10;48.50;;;;;;5112347;28;19912;-65
2021/11/29 13:40:25;;;;;;;;;;;23.00;48.40;;;;;;5112920;28;19908;-65
2021/11/29 13:42:52;;;;;;;;;;;23.10;48.50;;;;;;5112848;28;19914;-65
2021/11/29 13:45:19;;;;;;;;;;;23.00;48.40;;;;;;5112640;28;19907;-64
2021/11/29 13:47:47;;;;;;;;;;;23.10;48.40;;;;;;5112634;28;19912;-64
2021/11/29 13:50:16;;;;;;;;;;;23.00;48.30;;;;;;5112630;28;20356;-65
2021/11/29 13:52:43;;;;;;;;;;;23.10;48.30;;;;;;5112047;28;19923;-65
2021/11/29 13:55:11;;;;;;;;;;;23.10;48.30;;;;;;5105328;28;20421;-62
2021/11/29 13:57:42;;;;;;;;;;;23.10;48.30;;;;;;5107393;28;19908;-63
2021/11/29 14:00:09;;;;;;;;;;;23.10;48.20;;;;;;5112147;28;19915;-66
2021/11/29 14:02:35;;;;;;;;;;;23.00;48.20;;;;;;5112446;28;20390;-65
2021/11/29 14:05:00;;;;;;;;;;;23.00;48.20;;;;;;5112407;28;19990;-64
2021/11/29 14:07:26;;;;;;;;;;;23.10;48.20;;;;;;5111931;28;19908;-65
2021/11/29 14:09:52;;;;;;;;;;;23.10;48.20;;;;;;5112415;28;19952;-64
2021/11/29 14:12:17;;;;;;;;;;;23.00;48.10;;;;;;5112270;28;19916;-65
2021/11/29 14:14:48;;;;;;;;;;;23.00;48.10;;;;;;5112340;28;19908;-65